CW2640 Weather Reports


Display with metric or nautical units.
time (UTC)temp
F
wind
direction
speed
MPH
gust
MPH
rain 1hr
in
rain 24hr
in
rain mn
in
humidity
%
barometer
mb
20210625061732 74 154 0.0 0.0 0.00 0.00 0.00 88 1020.5
20210625054730 74 148 0.0 0.0 0.00 0.00 0.00 90 1020.5
20210625051724 74 154 0.0 0.0 0.00 0.00 0.00 91 1020.9
20210625044701 74 158 0.0 0.0 0.00 0.00 0.00 92 1021.0
20210625041648 74 158 0.0 0.0 0.00 0.00 0.00 90 1020.6
20210625034648 75 132 0.0 0.0 0.00 0.00 0.00 89 1020.4
20210625031646 76 144 0.0 0.0 0.00 0.00 0.00 86 1020.3
20210625024638 77 143 0.0 0.0 0.00 0.00 0.00 83 1020.3
20210625021638 78 155 1.0 1.0 0.00 0.00 0.00 82 1019.9
20210625014634 79 173 2.0 3.0 0.00 0.00 0.00 81 1019.7
20210625011624 79 147 0.0 0.0 0.00 0.00 0.00 82 1019.1
20210625004617 80 151 0.0 0.0 0.00 0.00 0.00 81 1019.2
20210625001612 81 151 0.0 0.0 0.00 0.00 0.00 80 1018.7
20210624234603 83 151 0.0 0.0 0.00 0.00 0.00 71 1018.9
20210624231600 84 147 0.0 0.0 0.00 0.00 0.00 68 1019.0
20210624224600 85 150 1.0 1.0 0.00 0.00 0.00 68 1019.0
20210624221600 85 134 1.0 1.0 0.00 0.00 0.00 71 1019.2
20210624214600 85 153 1.0 1.0 0.00 0.00 0.00 70 1018.9
20210624211552 85 159 0.0 0.0 0.00 0.00 0.00 70 1019.2
20210624204552 84 136 1.0 1.0 0.00 0.00 0.00 73 1019.3
20210624201539 85 161 0.0 0.0 0.00 0.00 0.00 72 1019.4
20210624194525 84 161 0.0 0.0 0.00 0.00 0.00 74 1019.9
20210624191517 87 145 2.0 2.0 0.00 0.00 0.00 66 1020.3
20210624184517 85 126 0.0 0.0 0.00 0.00 0.00 70 1020.5
20210624181517 86 130 0.0 1.0 0.00 0.00 0.00 68 1020.7
20210624174502 85 158 1.0 1.0 0.00 0.00 0.00 69 1020.8
20210624171456 85 154 0.0 0.0 0.00 0.00 0.00 69 1021.2
20210624164455 84 141 1.0 1.0 0.00 0.00 0.00 72 1021.1
20210624161453 85 175 1.0 1.0 0.00 0.00 0.00 69 1021.4
20210624154452 83 157 0.0 1.0 0.00 0.00 0.00 73 1021.5
20210624151451 83 122 1.0 1.0 0.00 0.00 0.00 73 1021.4
20210624144443 81 144 0.0 0.0 0.00 0.00 0.00 72 1021.5
20210624141419 78 143 0.0 1.0 0.00 0.00 0.00 76 1021.1
20210624134349 75 157 2.0 2.0 0.00 0.00 0.00 76 1021.2
20210624131331 73 146 0.0 0.0 0.00 0.00 0.00 81 1020.8
20210624124303 70 164 0.0 0.0 0.00 0.00 0.00 89 1020.9
20210624121239 69 151 0.0 0.0 0.00 0.00 0.00 89 1020.6
20210624114234 64 151 0.0 0.0 0.00 0.00 0.00 99 1020.4
20210624111234 63 150 0.0 0.0 0.00 0.00 0.00 99 1020.6
20210624104213 63 150 0.0 0.0 0.00 0.00 0.00 99 1020.2
20210624101153 63 151 0.0 0.0 0.00 0.00 0.00 99 1019.9
20210624094148 63 151 0.0 0.0 0.00 0.00 0.00 99 1019.8
20210624091059 64 151 0.0 0.0 0.00 0.00 0.00 99 1020.0
20210624084044 64 150 0.0 0.0 0.00 0.00 0.00 98 1020.1
20210624081033 64 151 0.0 0.0 0.00 0.00 0.00 98 1019.8
20210624073950 64 151 0.0 0.0 0.00 0.00 0.00 98 1019.8
20210624070940 65 151 0.0 0.0 0.00 0.00 0.00 99 1019.7
20210624063939 64 151 0.0 0.0 0.00 0.00 0.00 99 1020.0